createdAt,value
2023-09-07T00:07:16.379Z,15.6
2023-09-07T00:26:02.792Z,15.5
2023-09-07T00:44:49.277Z,15.4
2023-09-07T01:03:36.564Z,15.3
2023-09-07T01:22:22.200Z,15.2
2023-09-07T01:41:08.319Z,15.1
2023-09-07T01:59:52.940Z,15.1
2023-09-07T02:18:40.882Z,14.9
2023-09-07T02:37:26.604Z,14.9
2023-09-07T02:56:13.792Z,14.8
2023-09-07T03:14:57.811Z,14.8
2023-09-07T03:33:44.231Z,15
2023-09-07T03:52:31.748Z,14.9
2023-09-07T04:11:16.945Z,14.8
2023-09-07T04:30:00.999Z,14.9
2023-09-07T04:48:47.873Z,15.3
2023-09-07T05:07:34.133Z,15.2
2023-09-07T05:26:21.081Z,14.9
2023-09-07T05:45:08.327Z,14.8
2023-09-07T06:03:54.874Z,14.8
2023-09-07T06:22:40.559Z,14.8
2023-09-07T06:41:26.923Z,15
2023-09-07T07:00:12.727Z,15.1
2023-09-07T07:18:58.430Z,14.9
2023-09-07T07:37:44.374Z,15.2
2023-09-07T07:56:34.708Z,15.5
2023-09-07T08:15:20.519Z,15.7
2023-09-07T08:34:07.187Z,15.9
2023-09-07T08:52:53.648Z,16
2023-09-07T09:11:40.309Z,16.2
2023-09-07T09:30:27.016Z,16.2
2023-09-07T09:49:12.680Z,16.3
2023-09-07T10:07:59.640Z,16.3
2023-09-07T10:26:45.723Z,16.3
2023-09-07T10:45:32.281Z,16.4
2023-09-07T11:04:19.933Z,17
2023-09-07T11:23:07.756Z,17.5
2023-09-07T11:41:53.313Z,17.7
2023-09-07T12:00:36.447Z,17.5
2023-09-07T12:19:21.648Z,17.4
2023-09-07T12:38:08.264Z,17.4
2023-09-07T12:56:55.524Z,17.4
2023-09-07T13:15:43.638Z,17.3
2023-09-07T13:34:30.678Z,17.2
2023-09-07T13:53:18.331Z,17.2
2023-09-07T14:12:02.683Z,17.1
2023-09-07T14:30:50.251Z,16.8
2023-09-07T14:49:38.509Z,16.8
2023-09-07T15:08:21.039Z,17
2023-09-07T15:27:07.820Z,17.1
2023-09-07T15:45:55.140Z,17
2023-09-07T16:04:42.558Z,17.1
2023-09-07T16:23:28.917Z,17.2
2023-09-07T16:42:15.379Z,17.2
2023-09-07T17:01:00.991Z,17.1
2023-09-07T17:19:48.126Z,17.1
2023-09-07T17:38:34.214Z,17.2
2023-09-07T17:57:19.362Z,17.1
2023-09-07T18:16:06.034Z,16.9
2023-09-07T18:34:51.259Z,16.8
2023-09-07T18:53:36.758Z,16.9
2023-09-07T19:12:24.058Z,17
2023-09-07T19:31:10.364Z,17.1
2023-09-07T19:49:56.700Z,17.2
2023-09-07T20:08:42.406Z,17.3
2023-09-07T20:27:28.996Z,17.4
2023-09-07T20:46:16.433Z,16.8
2023-09-07T21:05:01.881Z,16.7
2023-09-07T21:23:48.408Z,16.5
2023-09-07T21:42:34.951Z,16.5
2023-09-07T22:01:21.718Z,16.4
2023-09-07T22:20:08.587Z,16.4
2023-09-07T22:38:55.931Z,16.5
2023-09-07T22:57:38.779Z,16.5
2023-09-07T23:16:23.404Z,16.4
2023-09-07T23:35:10.700Z,16.4
2023-09-07T23:53:56.384Z,16.3
